Time;durP1;ratioP1;P1;durP2;ratioP2;P2;SDS_P1;SDS_P2;PMS_P1;PMS_P2;Temp;Humidity;BMP_temperature;BMP_pressure;BME280_temperature;BME280_humidity;BME280_pressure;Samples;Min_cycle;Max_cycle;Signal;HPM_P1;HPM_P2
2022/06/09 00:00:20;;;;;;;0.40;0.40;;;21.60;53.30;;;;;;6208480;28;20030;-70
2022/06/09 00:03:51;;;;;;;0.63;0.40;;;21.60;53.30;;;;;;6218971;28;20022;-70
2022/06/09 00:06:58;;;;;;;0.30;0.30;;;21.60;53.30;;;;;;6193600;28;20042;-70
2022/06/09 00:10:06;;;;;;;0.30;0.28;;;21.60;53.30;;;;;;6193541;28;20027;-71
2022/06/09 00:13:06;;;;;;;0.43;0.43;;;21.60;53.30;;;;;;6193691;28;20030;-71
2022/06/09 00:16:10;;;;;;;0.52;0.40;;;21.60;54.00;;;;;;6211568;28;20304;-71
2022/06/09 00:19:11;;;;;;;0.60;0.50;;;21.60;53.40;;;;;;6216001;28;20056;-71
2022/06/09 00:22:11;;;;;;;0.30;0.30;;;21.60;53.30;;;;;;6193516;28;20065;-71
2022/06/09 00:25:13;;;;;;;0.43;0.30;;;21.60;53.30;;;;;;6203645;28;20050;-71
2022/06/09 00:28:15;;;;;;;0.40;0.30;;;21.60;53.40;;;;;;6219522;28;20065;-71
2022/06/09 00:31:16;;;;;;;0.65;0.30;;;21.60;53.40;;;;;;6205712;28;20449;-70
2022/06/09 00:34:16;;;;;;;0.35;0.35;;;21.60;53.30;;;;;;6198167;28;20046;-71
2022/06/09 00:37:17;;;;;;;0.35;0.35;;;21.60;53.30;;;;;;6199156;28;20034;-70
2022/06/09 00:40:18;;;;;;;0.30;0.30;;;21.60;53.40;;;;;;6207158;28;20029;-70
2022/06/09 00:43:20;;;;;;;3.70;0.60;;;21.60;53.30;;;;;;6217492;28;20052;-70
2022/06/09 00:46:27;;;;;;;0.50;0.40;;;21.60;53.40;;;;;;6206769;28;20018;-71
2022/06/09 00:49:34;;;;;;;0.60;0.43;;;21.60;53.30;;;;;;6198333;28;20501;-71
2022/06/09 00:52:39;;;;;;;0.40;0.40;;;21.60;53.30;;;;;;6222768;28;20042;-71
2022/06/09 00:55:41;;;;;;;0.50;0.50;;;21.60;53.30;;;;;;6213758;28;20038;-71
2022/06/09 00:58:45;;;;;;;0.45;0.40;;;21.60;53.40;;;;;;6198451;28;20544;-71
2022/06/09 01:01:47;;;;;;;0.38;0.38;;;21.60;53.30;;;;;;6196831;28;20019;-71
2022/06/09 01:04:50;;;;;;;0.30;0.30;;;21.60;53.30;;;;;;6197692;28;20106;-71
2022/06/09 01:07:54;;;;;;;0.40;0.40;;;21.60;53.40;;;;;;6221953;28;20080;-71
2022/06/09 01:10:55;;;;;;;0.40;0.40;;;21.60;53.40;;;;;;6210167;28;20058;-71
2022/06/09 01:13:58;;;;;;;0.20;0.20;;;21.60;53.40;;;;;;6197104;28;20030;-71
2022/06/09 01:17:20;;;;;;;0.30;0.30;;;21.60;53.40;;;;;;6212700;28;20488;-71
2022/06/09 01:20:33;;;;;;;0.40;0.40;;;21.60;53.40;;;;;;6218971;28;20022;-71
2022/06/09 01:23:33;;;;;;;0.30;0.30;;;21.60;53.40;;;;;;6197344;28;20052;-70
2022/06/09 01:26:49;;;;;;;0.25;0.20;;;21.60;53.40;;;;;;6210183;28;20018;-70
2022/06/09 01:29:50;;;;;;;0.40;0.30;;;21.60;53.40;;;;;;6221978;28;20381;-70
2022/06/09 01:32:56;;;;;;;0.95;0.47;;;21.60;53.40;;;;;;6199600;28;20050;-70
2022/06/09 01:36:14;;;;;;;0.40;0.40;;;21.60;53.40;;;;;;6197213;28;20393;-71
2022/06/09 01:39:15;;;;;;;0.30;0.30;;;21.60;53.40;;;;;;6197137;28;20027;-70
2022/06/09 01:42:35;;;;;;;0.60;0.40;;;21.60;53.40;;;;;;6209171;28;20040;-70
2022/06/09 01:46:06;;;;;;;0.30;0.30;;;21.60;53.40;;;;;;6219061;28;20033;-71
2022/06/09 01:49:17;;;;;;;0.30;0.30;;;21.60;53.40;;;;;;6196146;28;20033;-71
2022/06/09 01:52:19;;;;;;;0.40;0.40;;;21.60;53.40;;;;;;6211599;28;20030;-71
2022/06/09 01:55:22;;;;;;;0.50;0.40;;;21.60;53.40;;;;;;6221133;28;20132;-70
2022/06/09 01:58:28;;;;;;;0.50;0.50;;;21.60;53.40;;;;;;6198746;28;20237;-70
2022/06/09 02:01:41;;;;;;;0.40;0.30;;;21.60;53.40;;;;;;6203689;28;20040;-71
2022/06/09 02:05:06;;;;;;;0.20;0.20;;;21.50;53.30;;;;;;6220821;28;20508;-71
2022/06/09 02:08:14;;;;;;;0.30;0.30;;;21.60;53.40;;;;;;6220510;28;20469;-70
2022/06/09 02:11:14;;;;;;;0.65;0.40;;;21.60;53.40;;;;;;6217154;28;20034;-70
2022/06/09 02:14:17;;;;;;;0.30;0.30;;;21.60;53.40;;;;;;6196274;28;20049;-71
2022/06/09 02:17:19;;;;;;;0.50;0.30;;;21.60;53.40;;;;;;6207851;28;20113;-71
2022/06/09 02:20:23;;;;;;;0.20;0.20;;;21.60;53.40;;;;;;6220789;28;20500;-70
2022/06/09 02:23:24;;;;;;;0.40;0.40;;;21.60;53.40;;;;;;6201124;28;20303;-70
2022/06/09 02:26:25;;;;;;;0.40;0.40;;;21.60;53.40;;;;;;6198376;28;20107;-71
2022/06/09 02:29:26;;;;;;;0.30;0.30;;;21.60;53.50;;;;;;6220593;28;20370;-71
2022/06/09 02:32:26;;;;;;;0.30;0.30;;;21.60;53.50;;;;;;6209118;28;20022;-71
2022/06/09 02:35:27;;;;;;;0.32;0.32;;;21.60;53.40;;;;;;6194977;28;20049;-71
2022/06/09 02:38:28;;;;;;;0.20;0.20;;;21.60;53.50;;;;;;6194910;28;20481;-71
2022/06/09 02:41:29;;;;;;;0.30;0.30;;;21.60;53.40;;;;;;6196400;28;20045;-71
2022/06/09 02:44:29;;;;;;;0.30;0.30;;;21.60;53.40;;;;;;6219802;28;20034;-71
2022/06/09 02:47:30;;;;;;;0.30;0.28;;;21.60;53.40;;;;;;6211392;28;20033;-70
2022/06/09 02:50:31;;;;;;;0.30;0.30;;;21.60;53.50;;;;;;6196032;28;20555;-71
2022/06/09 02:53:32;;;;;;;0.43;0.32;;;21.60;53.40;;;;;;6212022;28;20075;-71
2022/06/09 02:56:33;;;;;;;0.20;0.20;;;21.60;53.40;;;;;;6219900;28;20038;-71
2022/06/09 02:59:33;;;;;;;0.30;0.30;;;21.50;53.40;;;;;;6195537;28;20097;-71
2022/06/09 03:02:34;;;;;;;0.43;0.40;;;21.60;53.50;;;;;;6204788;28;20358;-71
2022/06/09 03:05:36;;;;;;;1.13;0.50;;;21.60;53.50;;;;;;6194260;28;20030;-71
2022/06/09 03:08:37;;;;;;;0.30;0.30;;;21.60;53.50;;;;;;6209508;28;20025;-71
2022/06/09 03:11:38;;;;;;;0.20;0.20;;;21.60;53.50;;;;;;6218977;28;20028;-71
2022/06/09 03:14:39;;;;;;;0.30;0.30;;;21.60;53.50;;;;;;6178288;28;20058;-70
2022/06/09 03:17:39;;;;;;;0.30;0.30;;;21.50;54.10;;;;;;6200963;28;20018;-71
2022/06/09 03:20:40;;;;;;;0.30;0.30;;;21.60;53.50;;;;;;6219312;28;20555;-71
2022/06/09 03:23:42;;;;;;;0.30;0.30;;;21.60;53.50;;;;;;6205776;28;20126;-71
2022/06/09 03:26:43;;;;;;;0.32;0.32;;;21.60;53.50;;;;;;6194921;28;20482;-71
2022/06/09 03:29:43;;;;;;;0.22;0.22;;;21.60;53.50;;;;;;6215866;28;20485;-71
2022/06/09 03:32:44;;;;;;;0.30;0.30;;;21.60;53.50;;;;;;6214011;28;20052;-71
2022/06/09 03:35:45;;;;;;;0.30;0.30;;;21.60;53.50;;;;;;6177308;28;20066;-70
2022/06/09 03:38:45;;;;;;;0.40;0.40;;;21.60;53.50;;;;;;6204927;28;20033;-71
2022/06/09 03:41:46;;;;;;;0.52;0.32;;;21.60;53.50;;;;;;6194864;28;20027;-71
2022/06/09 03:44:47;;;;;;;0.30;0.30;;;21.60;53.50;;;;;;6196968;28;20022;-71
2022/06/09 03:47:48;;;;;;;0.35;0.30;;;21.60;53.50;;;;;;6215702;28;20049;-70
2022/06/09 03:50:49;;;;;;;0.50;0.38;;;21.60;53.50;;;;;;6194599;28;20042;-71
2022/06/09 03:53:49;;;;;;;0.30;0.30;;;21.60;53.50;;;;;;6198841;28;20044;-71
2022/06/09 03:56:51;;;;;;;0.30;0.30;;;21.60;53.50;;;;;;6194803;28;20035;-70
2022/06/09 03:59:52;;;;;;;0.40;0.40;;;21.60;53.50;;;;;;6194618;28;20034;-71
2022/06/09 04:02:53;;;;;;;0.32;0.30;;;21.60;53.50;;;;;;6195901;28;20105;-70
2022/06/09 04:05:53;;;;;;;0.20;0.20;;;21.60;53.50;;;;;;6223346;28;20030;-71
2022/06/09 04:08:54;;;;;;;0.38;0.30;;;21.60;53.50;;;;;;6214504;28;20022;-71
2022/06/09 04:11:55;;;;;;;0.52;0.40;;;21.60;53.50;;;;;;6196175;28;20773;-72
2022/06/09 04:14:55;;;;;;;0.32;0.30;;;21.60;53.50;;;;;;6216091;28;20030;-70
2022/06/09 04:17:56;;;;;;;0.52;0.40;;;21.60;53.50;;;;;;6223599;28;20101;-70
2022/06/09 04:20:57;;;;;;;0.20;0.20;;;21.60;53.50;;;;;;6198831;28;20022;-70
2022/06/09 04:23:58;;;;;;;0.35;0.35;;;21.60;53.60;;;;;;6206774;28;20097;-71
2022/06/09 04:26:59;;;;;;;0.30;0.30;;;21.50;53.40;;;;;;6222944;28;20029;-70
2022/06/09 04:30:00;;;;;;;0.73;0.30;;;21.60;53.50;;;;;;6207516;28;20650;-71
2022/06/09 04:33:00;;;;;;;0.50;0.47;;;21.60;53.50;;;;;;6203866;28;20037;-71
2022/06/09 04:36:01;;;;;;;0.30;0.30;;;21.50;53.40;;;;;;6206547;28;20088;-71
2022/06/09 04:39:05;;;;;;;0.30;0.30;;;21.60;53.50;;;;;;6217813;28;20466;-71
2022/06/09 04:42:05;;;;;;;0.73;0.30;;;21.50;53.40;;;;;;6200476;28;20027;-71
2022/06/09 04:45:07;;;;;;;0.20;0.20;;;21.60;53.50;;;;;;6209302;28;20029;-71
2022/06/09 04:48:11;;;;;;;0.30;0.30;;;21.60;53.50;;;;;;6222381;28;20029;-71
2022/06/09 04:51:16;;;;;;;0.20;0.20;;;21.60;53.50;;;;;;6199903;28;20029;-70
2022/06/09 04:54:17;;;;;;;0.30;0.30;;;21.60;53.50;;;;;;6210095;28;20142;-71
2022/06/09 04:57:18;;;;;;;0.30;0.30;;;21.50;53.40;;;;;;6198516;28;20041;-70
2022/06/09 05:00:33;;;;;;;0.57;0.40;;;21.60;53.60;;;;;;6212036;28;20117;-71
2022/06/09 05:03:34;;;;;;;0.20;0.20;;;21.60;53.60;;;;;;6199885;28;20033;-70
2022/06/09 05:06:35;;;;;;;0.38;0.38;;;21.60;53.60;;;;;;6220420;28;20301;-71
2022/06/09 05:09:36;;;;;;;0.30;0.30;;;21.60;53.60;;;;;;6216053;28;20026;-71
2022/06/09 05:12:36;;;;;;;0.45;0.30;;;21.60;53.60;;;;;;6197989;28;20030;-71
2022/06/09 05:15:46;;;;;;;0.30;0.30;;;21.60;53.60;;;;;;6211895;28;20038;-71
2022/06/09 05:18:47;;;;;;;0.30;0.30;;;21.60;53.60;;;;;;6222221;28;20025;-71
2022/06/09 05:21:48;;;;;;;0.20;0.20;;;21.60;53.60;;;;;;6198620;28;20014;-71
2022/06/09 05:24:48;;;;;;;0.30;0.30;;;21.60;53.60;;;;;;6204295;28;20010;-71
2022/06/09 05:27:49;;;;;;;0.28;0.28;;;21.60;53.60;;;;;;6218272;28;20038;-70
2022/06/09 05:30:50;;;;;;;0.28;0.28;;;21.60;53.60;;;;;;6207751;28;20094;-71
2022/06/09 05:33:51;;;;;;;0.20;0.20;;;21.60;53.60;;;;;;6196903;28;20502;-71
2022/06/09 05:36:51;;;;;;;0.50;0.47;;;21.60;53.60;;;;;;6197087;28;20544;-71
2022/06/09 05:46:34;;;;;;;0.35;0.30;;;21.60;53.60;;;;;;6203742;28;20034;-71
2022/06/09 05:49:34;;;;;;;0.55;0.40;;;21.60;53.60;;;;;;6198069;28;20025;-72
2022/06/09 05:52:35;;;;;;;1.00;0.30;;;21.60;53.70;;;;;;6221143;28;20022;-71
2022/06/09 05:55:36;;;;;;;0.50;0.40;;;21.60;53.60;;;;;;6212160;28;20374;-71
2022/06/09 05:58:37;;;;;;;0.38;0.30;;;21.60;53.60;;;;;;6196588;28;20033;-71
2022/06/09 06:01:38;;;;;;;0.28;0.28;;;21.60;53.50;;;;;;6217215;28;20070;-71
2022/06/09 06:04:39;;;;;;;0.30;0.30;;;21.60;53.50;;;;;;6224234;28;20046;-71
2022/06/09 06:07:39;;;;;;;0.30;0.30;;;21.60;53.50;;;;;;6201484;28;20034;-71
2022/06/09 06:10:40;;;;;;;0.50;0.40;;;21.60;53.60;;;;;;6216271;28;20062;-71
2022/06/09 06:13:45;;;;;;;0.38;0.38;;;21.60;53.60;;;;;;6181159;28;20572;-70
2022/06/09 06:16:46;;;;;;;0.43;0.43;;;21.60;53.50;;;;;;6213998;28;20040;-70
2022/06/09 06:19:47;;;;;;;0.40;0.40;;;21.50;53.50;;;;;;6223340;28;20030;-71
2022/06/09 06:22:47;;;;;;;0.45;0.40;;;21.60;53.60;;;;;;6199587;28;20022;-71
2022/06/09 06:25:48;;;;;;;0.45;0.35;;;21.60;54.20;;;;;;6203869;28;20049;-71
2022/06/09 06:28:50;;;;;;;0.50;0.40;;;21.60;53.60;;;;;;6222750;28;20025;-71
2022/06/09 06:31:51;;;;;;;3.92;0.45;;;21.60;53.60;;;;;;6208322;28;20026;-70
2022/06/09 06:34:52;;;;;;;0.35;0.35;;;21.60;53.60;;;;;;6198436;28;20390;-70
2022/06/09 06:37:53;;;;;;;0.38;0.38;;;21.60;53.60;;;;;;6197918;28;20033;-71
2022/06/09 06:40:54;;;;;;;0.57;0.45;;;21.60;53.60;;;;;;6203104;28;20022;-71
2022/06/09 06:43:55;;;;;;;0.70;0.60;;;21.60;53.60;;;;;;6222457;28;20026;-71
2022/06/09 06:46:56;;;;;;;0.52;0.40;;;21.60;53.60;;;;;;6209559;28;20019;-71
2022/06/09 06:49:56;;;;;;;0.45;0.40;;;21.60;53.60;;;;;;6197921;28;20023;-71
2022/06/09 06:52:57;;;;;;;1.02;0.50;;;21.60;53.60;;;;;;6218038;28;20018;-71
2022/06/09 06:55:58;;;;;;;0.35;0.32;;;21.60;53.60;;;;;;6218828;28;20041;-71
2022/06/09 06:58:59;;;;;;;0.30;0.30;;;21.60;53.60;;;;;;6194744;28;20477;-70
2022/06/09 07:02:00;;;;;;;0.68;0.50;;;21.60;53.60;;;;;;6208469;28;20053;-71
2022/06/09 07:05:00;;;;;;;0.30;0.30;;;21.60;53.60;;;;;;6222338;28;20483;-70
2022/06/09 07:08:03;;;;;;;0.70;0.47;;;21.60;53.60;;;;;;6221877;28;20108;-71
2022/06/09 07:11:06;;;;;;;0.73;0.50;;;21.60;53.60;;;;;;6219794;28;20029;-71
2022/06/09 07:14:06;;;;;;;2.15;0.50;;;21.60;53.60;;;;;;6197261;28;20049;-70
2022/06/09 07:17:07;;;;;;;0.40;0.40;;;21.60;53.60;;;;;;6207554;28;20018;-70
2022/06/09 07:20:10;;;;;;;0.50;0.45;;;21.60;53.60;;;;;;6221896;28;20026;-70
2022/06/09 07:23:11;;;;;;;1.05;0.35;;;21.60;53.60;;;;;;6204102;28;20025;-71
2022/06/09 07:26:12;;;;;;;0.40;0.40;;;21.60;53.60;;;;;;6198426;28;20482;-71
2022/06/09 07:29:13;;;;;;;0.30;0.30;;;21.60;53.60;;;;;;6221754;28;20030;-71
2022/06/09 07:32:13;;;;;;;0.88;0.40;;;21.60;53.60;;;;;;6212415;28;20014;-71
2022/06/09 07:35:19;;;;;;;0.52;0.40;;;21.60;53.60;;;;;;6197088;28;20058;-70
2022/06/09 07:38:21;;;;;;;0.50;0.50;;;21.60;53.60;;;;;;6206513;28;20029;-71
2022/06/09 07:41:21;;;;;;;0.75;0.50;;;21.60;53.60;;;;;;6226598;28;20026;-71
2022/06/09 07:44:23;;;;;;;0.60;0.50;;;21.60;53.60;;;;;;6226805;28;20431;-70
2022/06/09 07:47:25;;;;;;;0.30;0.30;;;21.60;53.60;;;;;;6218101;28;20035;-71
2022/06/09 07:50:25;;;;;;;0.20;0.20;;;21.60;53.60;;;;;;6202045;28;20018;-71
2022/06/09 07:53:26;;;;;;;0.65;0.38;;;21.60;53.60;;;;;;6217830;28;20446;-71
2022/06/09 07:56:28;;;;;;;0.50;0.40;;;21.60;53.60;;;;;;6226561;28;20118;-70
2022/06/09 07:59:29;;;;;;;0.60;0.50;;;21.60;53.60;;;;;;6202444;28;20548;-71
2022/06/09 08:02:30;;;;;;;0.45;0.30;;;21.60;53.60;;;;;;6202962;28;20080;-71
2022/06/09 08:05:32;;;;;;;0.52;0.40;;;21.60;53.70;;;;;;6201764;28;20046;-71
2022/06/09 08:08:33;;;;;;;0.38;0.38;;;21.60;53.70;;;;;;6216370;28;20030;-71
2022/06/09 08:11:37;;;;;;;0.30;0.30;;;21.60;53.70;;;;;;6225819;28;20022;-71
2022/06/09 08:14:39;;;;;;;0.77;0.40;;;21.60;53.70;;;;;;6199960;28;20658;-70
2022/06/09 08:17:39;;;;;;;0.35;0.35;;;21.60;53.70;;;;;;6207502;28;20168;-71
2022/06/09 08:20:42;;;;;;;0.30;0.30;;;21.60;53.70;;;;;;6225752;28;20108;-71
2022/06/09 08:23:43;;;;;;;0.40;0.40;;;21.60;53.70;;;;;;6211550;28;20034;-71
2022/06/09 08:26:44;;;;;;;0.93;0.52;;;21.60;53.70;;;;;;6201243;28;20470;-71
2022/06/09 08:29:44;;;;;;;0.43;0.40;;;21.60;53.70;;;;;;6223007;28;20018;-71
2022/06/09 08:32:45;;;;;;;0.50;0.40;;;21.60;53.70;;;;;;6220421;28;20053;-71
2022/06/09 08:35:46;;;;;;;0.28;0.28;;;21.60;53.70;;;;;;6221543;28;20041;-71
2022/06/09 08:38:48;;;;;;;0.30;0.30;;;21.60;53.60;;;;;;6212965;28;20026;-70
2022/06/09 08:42:14;;;;;;;0.38;0.38;;;21.60;53.70;;;;;;6201352;28;20026;-70
2022/06/09 08:45:27;;;;;;;0.60;0.30;;;21.60;53.70;;;;;;6224458;28;20581;-71
2022/06/09 08:48:34;;;;;;;0.40;0.40;;;21.60;53.70;;;;;;6216258;28;20026;-71
2022/06/09 08:51:42;;;;;;;0.30;0.30;;;21.60;53.60;;;;;;6200650;28;20368;-70
2022/06/09 08:54:44;;;;;;;0.43;0.32;;;21.60;53.60;;;;;;6203486;28;20030;-70
2022/06/09 08:57:46;;;;;;;0.40;0.40;;;21.60;53.70;;;;;;6200298;28;20022;-71
2022/06/09 09:01:17;;;;;;;0.50;0.30;;;21.60;53.70;;;;;;6200663;28;20022;-70
2022/06/09 09:04:29;;;;;;;0.30;0.30;;;21.60;53.60;;;;;;6213481;28;20026;-70
2022/06/09 09:07:33;;;;;;;0.68;0.50;;;21.60;53.70;;;;;;6224976;28;20028;-71
2022/06/09 09:10:58;;;;;;;0.32;0.32;;;21.60;53.70;;;;;;6201711;28;20022;-71
2022/06/09 09:14:12;;;;;;;0.22;0.22;;;21.60;53.70;;;;;;6209521;28;20018;-71
2022/06/09 09:17:44;;;;;;;0.20;0.20;;;21.60;53.70;;;;;;6224362;28;20079;-71
2022/06/09 09:21:32;;;;;;;0.55;0.40;;;21.60;53.70;;;;;;6201183;28;20023;-71
2022/06/09 09:24:39;;;;;;;0.40;0.30;;;21.60;53.70;;;;;;6190752;28;20034;-71
2022/06/09 09:27:45;;;;;;;0.22;0.20;;;21.60;53.70;;;;;;6224449;28;20033;-71
2022/06/09 09:31:01;;;;;;;0.40;0.30;;;21.60;53.70;;;;;;6202154;28;20037;-70
2022/06/09 09:34:04;;;;;;;0.20;0.20;;;21.60;53.70;;;;;;6199278;28;20170;-71
2022/06/09 09:37:28;;;;;;;0.30;0.20;;;21.60;53.60;;;;;;6199525;28;20568;-73
2022/06/09 09:40:42;;;;;;;0.30;0.30;;;21.60;53.70;;;;;;6217388;28;20041;-70
2022/06/09 09:43:43;;;;;;;0.40;0.30;;;21.60;53.70;;;;;;6220479;28;20026;-70
2022/06/09 09:46:53;;;;;;;0.20;0.20;;;21.60;53.70;;;;;;6199732;28;20109;-70
2022/06/09 09:50:06;;;;;;;0.32;0.30;;;21.60;53.70;;;;;;6211035;28;20053;-71
2022/06/09 09:53:24;;;;;;;0.30;0.30;;;21.60;53.60;;;;;;6223820;28;20014;-70
2022/06/09 09:56:36;;;;;;;0.38;0.30;;;21.60;53.70;;;;;;6201655;28;20026;-70
2022/06/09 09:59:51;;;;;;;0.30;0.30;;;21.60;53.70;;;;;;6214690;28;20022;-71
2022/06/09 10:09:51;;;;;;;0.30;0.30;;;21.60;53.70;;;;;;6215578;28;20031;-71
2022/06/09 10:12:51;;;;;;;0.20;0.20;;;21.60;53.70;;;;;;6198812;28;20026;-70
2022/06/09 10:15:53;;;;;;;0.47;0.40;;;21.60;53.70;;;;;;6215224;28;20042;-70
2022/06/09 10:18:59;;;;;;;0.77;0.30;;;21.60;53.70;;;;;;6218690;28;20432;-70
2022/06/09 10:22:16;;;;;;;0.30;0.20;;;21.60;53.70;;;;;;6198994;28;20081;-72
2022/06/09 10:25:27;;;;;;;0.45;0.30;;;21.60;53.70;;;;;;6198411;28;20507;-71
2022/06/09 10:28:48;;;;;;;0.40;0.40;;;21.60;53.70;;;;;;6198514;28;20054;-71
2022/06/09 10:32:16;;;;;;;0.30;0.30;;;21.60;53.70;;;;;;6220411;28;20050;-71
2022/06/09 10:35:42;;;;;;;0.30;0.30;;;21.60;53.70;;;;;;6213172;28;20050;-71
2022/06/09 10:38:59;;;;;;;0.50;0.50;;;21.60;53.70;;;;;;6198613;28;20105;-71
2022/06/09 10:42:23;;;;;;;0.25;0.25;;;21.60;53.70;;;;;;6197038;28;20108;-71
2022/06/09 10:45:56;;;;;;;0.30;0.30;;;21.60;53.70;;;;;;6206615;28;20026;-70
2022/06/09 10:56:53;;;;;;;0.30;0.30;;;21.60;53.70;;;;;;6207683;28;20520;-71
2022/06/09 11:00:14;;;;;;;0.30;0.30;;;21.60;53.80;;;;;;6213913;28;20041;-70
2022/06/09 11:03:26;;;;;;;0.30;0.30;;;21.60;53.70;;;;;;6197725;28;20109;-70
2022/06/09 11:06:57;;;;;;;0.30;0.30;;;21.60;53.80;;;;;;6211986;28;20022;-70
2022/06/09 11:10:25;;;;;;;0.30;0.30;;;21.60;53.80;;;;;;6220008;28;20030;-72
2022/06/09 11:13:59;;;;;;;0.35;0.30;;;21.60;53.80;;;;;;6197000;28;20102;-71
2022/06/09 11:17:11;;;;;;;0.50;0.40;;;21.60;53.80;;;;;;6211189;28;20046;-71
2022/06/09 11:20:15;;;;;;;0.57;0.40;;;21.60;53.80;;;;;;6219260;28;20018;-70
2022/06/09 11:23:39;;;;;;;0.30;0.30;;;21.60;53.80;;;;;;6197242;28;20064;-70
2022/06/09 11:26:48;;;;;;;0.40;0.32;;;21.60;53.80;;;;;;6210539;28;20026;-71
2022/06/09 11:29:55;;;;;;;0.30;0.30;;;21.60;53.80;;;;;;6203764;28;20037;-71
2022/06/09 11:32:58;;;;;;;0.35;0.35;;;21.60;53.80;;;;;;6198181;28;20061;-71
2022/06/09 11:36:24;;;;;;;0.55;0.30;;;21.60;53.80;;;;;;6197161;28;20054;-71
2022/06/09 11:39:33;;;;;;;0.38;0.38;;;21.60;53.80;;;;;;6160031;28;20034;-70
2022/06/09 11:42:58;;;;;;;0.28;0.28;;;21.60;53.80;;;;;;6215873;28;20022;-70
2022/06/09 11:46:18;;;;;;;0.45;0.45;;;21.60;53.80;;;;;;6216318;28;20029;-71
2022/06/09 11:49:39;;;;;;;0.22;0.22;;;21.60;53.80;;;;;;6196926;28;20105;-71
2022/06/09 11:52:48;;;;;;;0.20;0.20;;;21.60;53.80;;;;;;6215047;28;20059;-71
2022/06/09 11:56:03;;;;;;;0.30;0.20;;;21.60;53.80;;;;;;6218428;28;20038;-71
2022/06/09 11:59:19;;;;;;;0.30;0.22;;;21.60;53.80;;;;;;6197250;28;20058;-71
2022/06/09 12:02:54;;;;;;;0.30;0.30;;;21.60;53.80;;;;;;6196799;28;20018;-71
2022/06/09 12:06:16;;;;;;;0.30;0.30;;;21.60;53.80;;;;;;6197911;28;20481;-70
2022/06/09 12:09:23;;;;;;;0.30;0.30;;;21.60;53.70;;;;;;6220818;28;20443;-71
2022/06/09 12:12:33;;;;;;;0.40;0.30;;;21.60;53.80;;;;;;6207954;28;20489;-70
2022/06/09 12:15:50;;;;;;;0.20;0.20;;;21.60;53.80;;;;;;6196629;28;20026;-71
2022/06/09 12:19:18;;;;;;;0.30;0.30;;;21.60;53.80;;;;;;6217636;28;20518;-71
2022/06/09 12:22:40;;;;;;;0.30;0.30;;;21.60;53.80;;;;;;6209839;28;20034;-70
2022/06/09 12:25:41;;;;;;;1.05;0.40;;;21.60;53.70;;;;;;6199649;28;20033;-71
2022/06/09 12:28:54;;;;;;;0.50;0.30;;;21.60;53.80;;;;;;6222971;28;20026;-71
2022/06/09 12:32:07;;;;;;;0.30;0.22;;;21.60;53.80;;;;;;6210719;28;20030;-70
2022/06/09 12:35:31;;;;;;;0.20;0.20;;;21.60;53.80;;;;;;6201037;28;20129;-70
2022/06/09 12:38:35;;;;;;;0.45;0.30;;;21.60;53.80;;;;;;6220152;28;20029;-71
2022/06/09 12:41:40;;;;;;;0.22;0.20;;;21.60;53.80;;;;;;6222384;28;20531;-71
2022/06/09 12:44:49;;;;;;;0.30;0.30;;;21.60;53.80;;;;;;6201531;28;20069;-70
2022/06/09 12:47:55;;;;;;;0.20;0.20;;;21.60;53.80;;;;;;6212712;28;20030;-70
2022/06/09 12:50:56;;;;;;;0.50;0.30;;;21.60;53.80;;;;;;6224930;28;20052;-70
2022/06/09 12:54:06;;;;;;;0.20;0.20;;;21.60;53.80;;;;;;6219835;28;20049;-70
2022/06/09 12:57:24;;;;;;;0.25;0.25;;;21.60;53.80;;;;;;6219900;28;20378;-71
2022/06/09 13:00:35;;;;;;;0.47;0.30;;;21.60;53.80;;;;;;6200542;28;20031;-71
2022/06/09 13:03:51;;;;;;;0.50;0.50;;;21.60;53.80;;;;;;6200898;28;20030;-71
2022/06/09 13:06:53;;;;;;;0.30;0.30;;;21.60;53.80;;;;;;6201369;28;20021;-71
2022/06/09 13:10:23;;;;;;;0.22;0.22;;;21.60;53.80;;;;;;6224736;28;20076;-71
2022/06/09 13:13:29;;;;;;;0.30;0.30;;;21.60;53.80;;;;;;6209950;28;20042;-71
2022/06/09 13:16:33;;;;;;;0.22;0.20;;;21.60;53.80;;;;;;6199898;28;20030;-71
2022/06/09 13:19:36;;;;;;;0.40;0.30;;;21.60;53.80;;;;;;6222110;28;20477;-71
2022/06/09 13:22:38;;;;;;;0.20;0.20;;;21.60;53.80;;;;;;6218414;28;20515;-71
2022/06/09 13:25:39;;;;;;;0.30;0.30;;;21.60;53.80;;;;;;6200122;28;20509;-71
2022/06/09 13:28:45;;;;;;;0.38;0.38;;;21.60;53.80;;;;;;6213035;28;20235;-72
2022/06/09 13:31:46;;;;;;;0.20;0.20;;;21.60;53.80;;;;;;6223733;28;20543;-72
2022/06/09 13:34:49;;;;;;;0.80;0.40;;;21.60;53.80;;;;;;6221431;28;20089;-72
2022/06/09 13:38:06;;;;;;;0.50;0.30;;;21.60;53.80;;;;;;6218513;28;20482;-71
2022/06/09 13:41:12;;;;;;;0.20;0.20;;;21.60;53.80;;;;;;6199523;28;20025;-72
2022/06/09 13:44:26;;;;;;;0.57;0.30;;;21.60;53.80;;;;;;6215064;28;20427;-72
2022/06/09 13:47:31;;;;;;;0.47;0.47;;;21.60;53.80;;;;;;6222790;28;20093;-72
2022/06/09 13:50:40;;;;;;;0.40;0.30;;;21.60;53.80;;;;;;6199725;28;20018;-72
2022/06/09 13:54:00;;;;;;;0.20;0.20;;;21.60;53.90;;;;;;6202193;28;20050;-72
2022/06/09 13:57:00;;;;;;;0.20;0.20;;;21.60;53.80;;;;;;6198883;28;20038;-72
2022/06/09 14:00:04;;;;;;;0.20;0.20;;;21.60;53.80;;;;;;6199447;28;20446;-72
2022/06/09 14:03:19;;;;;;;0.70;0.35;;;21.60;53.80;;;;;;6202441;28;20042;-72
2022/06/09 14:06:22;;;;;;;0.20;0.20;;;21.60;53.80;;;;;;6223203;28;20196;-72
2022/06/09 14:09:23;;;;;;;0.30;0.30;;;21.60;53.80;;;;;;6209822;28;20093;-71
2022/06/09 14:12:24;;;;;;;0.30;0.30;;;21.60;53.80;;;;;;6198909;28;20019;-71
2022/06/09 14:15:27;;;;;;;0.30;0.30;;;21.60;53.90;;;;;;6219557;28;20061;-72
2022/06/09 14:18:32;;;;;;;0.20;0.20;;;21.60;53.80;;;;;;6217288;28;20025;-72
2022/06/09 14:21:33;;;;;;;0.22;0.20;;;21.60;53.90;;;;;;6198368;28;20023;-72
2022/06/09 14:24:34;;;;;;;0.40;0.30;;;21.60;53.90;;;;;;6211528;28;20500;-71
2022/06/09 14:27:35;;;;;;;0.70;0.30;;;21.60;53.80;;;;;;6222849;28;20022;-72
2022/06/09 14:30:35;;;;;;;0.47;0.40;;;21.60;53.90;;;;;;6201836;28;20042;-72
2022/06/09 14:33:36;;;;;;;0.20;0.20;;;21.60;53.90;;;;;;6198077;28;20547;-72
2022/06/09 14:36:37;;;;;;;0.50;0.38;;;21.60;53.90;;;;;;6197940;28;20121;-71
2022/06/09 14:39:38;;;;;;;0.30;0.30;;;21.60;53.90;;;;;;6209298;28;20029;-72
2022/06/09 14:42:39;;;;;;;0.20;0.20;;;21.60;53.90;;;;;;6221875;28;20075;-71
2022/06/09 14:45:45;;;;;;;0.30;0.30;;;21.60;53.90;;;;;;6202450;28;20030;-72
2022/06/09 14:48:45;;;;;;;0.52;0.40;;;21.60;53.90;;;;;;6200320;28;20049;-71
2022/06/09 14:51:48;;;;;;;0.45;0.40;;;21.60;53.90;;;;;;6222396;28;20048;-72
2022/06/09 14:54:49;;;;;;;0.20;0.20;;;21.60;54.00;;;;;;6211007;28;20030;-72
2022/06/09 14:57:50;;;;;;;0.20;0.20;;;21.60;54.00;;;;;;6198129;28;20387;-72
2022/06/09 15:00:52;;;;;;;0.43;0.30;;;21.60;53.90;;;;;;6216653;28;20028;-71
2022/06/09 15:03:53;;;;;;;0.30;0.20;;;21.60;53.90;;;;;;6215353;28;20041;-72
2022/06/09 15:06:54;;;;;;;0.40;0.28;;;21.60;53.90;;;;;;6222022;28;20497;-72
2022/06/09 15:09:55;;;;;;;0.38;0.30;;;21.60;53.90;;;;;;6212548;28;20029;-72
2022/06/09 15:12:55;;;;;;;0.30;0.25;;;21.60;53.90;;;;;;6197626;28;20037;-71
2022/06/09 15:16:01;;;;;;;0.30;0.30;;;21.60;53.90;;;;;;6215080;28;20034;-72
2022/06/09 15:19:03;;;;;;;0.30;0.30;;;21.60;53.90;;;;;;6202792;28;20038;-72
2022/06/09 15:22:04;;;;;;;0.77;0.38;;;21.60;53.90;;;;;;6197358;28;20465;-71
2022/06/09 15:25:05;;;;;;;0.40;0.20;;;21.60;53.90;;;;;;6196878;28;20022;-72
2022/06/09 15:28:06;;;;;;;0.30;0.25;;;21.60;53.90;;;;;;6197209;28;20072;-71
2022/06/09 15:31:09;;;;;;;0.30;0.30;;;21.60;53.90;;;;;;6204677;28;20113;-72
2022/06/09 15:34:09;;;;;;;0.30;0.30;;;21.60;53.90;;;;;;6193411;28;20081;-72
2022/06/09 15:37:10;;;;;;;0.35;0.22;;;21.60;53.90;;;;;;6196489;28;20038;-72
2022/06/09 15:40:20;;;;;;;0.25;0.25;;;21.60;53.90;;;;;;6204574;28;20109;-72
2022/06/09 15:43:21;;;;;;;0.63;0.40;;;21.60;53.90;;;;;;6220945;28;20362;-72
2022/06/09 15:46:22;;;;;;;0.30;0.30;;;21.60;53.90;;;;;;6203976;28;20098;-72
2022/06/09 15:49:23;;;;;;;0.55;0.30;;;21.60;53.90;;;;;;6196781;28;20027;-72
2022/06/09 15:52:24;;;;;;;0.20;0.20;;;21.60;53.90;;;;;;6195496;28;20026;-71
2022/06/09 15:55:25;;;;;;;0.47;0.40;;;21.60;53.90;;;;;;6205007;28;20569;-71
2022/06/09 15:58:26;;;;;;;0.40;0.30;;;21.60;53.90;;;;;;6221073;28;20021;-72
2022/06/09 16:01:27;;;;;;;0.40;0.30;;;21.60;53.90;;;;;;6210275;28;20034;-72
2022/06/09 16:04:27;;;;;;;0.28;0.28;;;21.60;53.90;;;;;;6201867;28;20022;-71
2022/06/09 16:07:28;;;;;;;0.30;0.30;;;21.60;53.90;;;;;;6224666;28;20017;-72
2022/06/09 16:10:35;;;;;;;0.85;0.32;;;21.60;54.00;;;;;;6220096;28;20106;-71
2022/06/09 16:13:36;;;;;;;0.30;0.30;;;21.60;53.90;;;;;;6201346;28;20116;-72
2022/06/09 16:16:37;;;;;;;0.30;0.30;;;21.60;53.90;;;;;;6214173;28;20037;-72
2022/06/09 16:19:38;;;;;;;0.30;0.30;;;21.60;53.90;;;;;;6223576;28;20485;-72
2022/06/09 16:22:38;;;;;;;0.30;0.30;;;21.60;53.90;;;;;;6200942;28;20050;-73
2022/06/09 16:25:39;;;;;;;0.32;0.30;;;21.60;53.90;;;;;;6205023;28;20036;-72
2022/06/09 16:28:40;;;;;;;0.30;0.30;;;21.60;53.90;;;;;;6223586;28;20033;-72